Terminal Aerodrome Forecast
Issued by NWS Pittsburgh, PA

Home | Current Version | Previous Version | Text Only | Print | Product List | Glossary On
Versions: 1 2 3 4 5 6 7 8 9 10 11 12 13 14 15 16 17 18 19 20 21 22 23 24 25 26 27 28
913
FTUS41 KPBZ 181736
TAFPIT
TAF
KPIT 181736Z 1818/1924 15011KT 5SM -SHRA OVC025 WS020/21040KT
      TEMPO 1818/1821 2SM SHRA BR OVC015
     FM190000 19015G28KT 5SM SHRA OVC025
     FM190600 28017G36KT 5SM -SHRASN OVC010
     FM191000 28016G28KT P6SM VCSH OVC020=

USA.gov is the U.S. government's official web portal to all federal, state and local government web resources and services.